Time;durP1;ratioP1;P1;durP2;ratioP2;P2;SDS_P1;SDS_P2;PMS_P1;PMS_P2;Temp;Humidity;BMP_temperature;BMP_pressure;BME280_temperature;BME280_humidity;BME280_pressure;Samples;Min_cycle;Max_cycle;Signal;HPM_P1;HPM_P2
2023/07/10 17:01:41;;;;;;;241.05;220.23;;;;;;;;;;5044494;27;20409;-57
2023/07/10 17:04:08;;;;;;;251.45;232.18;;;;;;;;;;5021183;28;20025;-58
2023/07/10 17:06:33;;;;;;;331.45;306.20;;;;;;;;;;5021975;28;20569;-57
2023/07/10 17:08:59;;;;;;;370.87;338.80;;;;;;;;;;5019316;28;20026;-56
2023/07/10 17:11:26;;;;;;;241.00;221.63;;;;;;;;;;5007972;28;20322;-56
2023/07/10 17:13:51;;;;;;;239.15;219.23;;;;;;;;;;4999607;28;20041;-54
2023/07/10 17:16:16;;;;;;;232.40;212.73;;;;;;;;;;5009427;28;20030;-57
2023/07/10 17:18:42;;;;;;;636.80;229.30;;;;;;;;;;5020564;28;20051;-57
2023/07/10 17:21:08;;;;;;;249.03;228.30;;;;;;;;;;5010193;28;20297;-56
2023/07/10 17:23:35;;;;;;;242.15;221.95;;;;;;;;;;5001873;28;20036;-56
2023/07/10 17:26:00;;;;;;;421.33;377.38;;;;;;;;;;4999491;28;20030;-55
2023/07/10 17:28:27;;;;;;;326.43;297.90;;;;;;;;;;5000547;28;20117;-55
2023/07/10 17:30:53;;;;;;;278.33;254.73;;;;;;;;;;4998924;28;20069;-57
2023/07/10 17:33:19;;;;;;;256.98;235.90;;;;;;;;;;5000425;28;20025;-58
2023/07/10 17:35:44;;;;;;;438.90;402.17;;;;;;;;;;4999408;28;20034;-57
2023/07/10 17:38:10;;;;;;;266.23;243.43;;;;;;;;;;5001956;28;20029;-57
2023/07/10 17:40:36;;;;;;;244.70;225.50;;;;;;;;;;4999721;28;20042;-60
2023/07/10 17:43:01;;;;;;;249.43;229.07;;;;;;;;;;4999201;28;20611;-59
2023/07/10 17:45:26;;;;;;;254.43;232.83;;;;;;;;;;5000514;28;20022;-57
2023/07/10 17:47:52;;;;;;;289.70;266.10;;;;;;;;;;5018402;28;20635;-57
2023/07/10 17:50:17;;;;;;;318.65;293.05;;;;;;;;;;5019704;28;20013;-57
2023/07/10 17:52:43;;;;;;;263.77;242.35;;;;;;;;;;5020229;28;20415;-57
2023/07/10 17:55:18;;;;;;;281.20;259.38;;;;;;;;;;5020355;28;20047;-58
2023/07/10 17:57:44;;;;;;;278.52;255.35;;;;;;;;;;5020359;28;20120;-58
2023/07/10 18:00:10;;;;;;;253.65;232.20;;;;;;;;;;5016163;28;20029;-56
2023/07/10 18:02:37;;;;;;;303.85;279.73;;;;;;;;;;5022235;28;20191;-57
2023/07/10 18:05:12;;;;;;;318.13;290.83;;;;;;;;;;5017807;28;20048;-56
2023/07/10 18:07:37;;;;;;;253.13;231.57;;;;;;;;;;5020430;28;20504;-55
2023/07/10 18:10:02;;;;;;;292.77;269.57;;;;;;;;;;5018477;28;20113;-57
2023/07/10 18:12:28;;;;;;;338.83;310.48;;;;;;;;;;5006701;28;20483;-57
2023/07/10 18:14:53;;;;;;;286.37;262.87;;;;;;;;;;5002689;28;20048;-59
2023/07/10 18:17:23;;;;;;;231.73;212.67;;;;;;;;;;5005331;28;20311;-58
2023/07/10 18:19:48;;;;;;;232.48;213.45;;;;;;;;;;5005398;28;20057;-55
2023/07/10 18:22:14;;;;;;;239.85;220.07;;;;;;;;;;5005051;28;20113;-56
2023/07/10 18:24:39;;;;;;;426.38;386.83;;;;;;;;;;5004890;28;20152;-56
2023/07/10 18:27:10;;;;;;;241.27;221.70;;;;;;;;;;5006066;28;20043;-57
2023/07/10 18:29:35;;;;;;;236.00;216.23;;;;;;;;;;5006236;28;20956;-58
2023/07/10 18:32:00;;;;;;;245.50;225.20;;;;;;;;;;5004080;28;20920;-57
2023/07/10 18:34:26;;;;;;;253.97;233.87;;;;;;;;;;5010480;28;20394;-58
2023/07/10 18:36:51;;;;;;;230.57;211.53;;;;;;;;;;5008145;28;20041;-56
2023/07/10 18:39:16;;;;;;;243.60;224.40;;;;;;;;;;5005709;28;20261;-56
2023/07/10 18:41:42;;;;;;;252.60;232.25;;;;;;;;;;5007150;28;20079;-56
2023/07/10 18:44:11;;;;;;;325.20;300.95;;;;;;;;;;5005626;28;20709;-57
2023/07/10 18:46:36;;;;;;;254.02;233.82;;;;;;;;;;4992786;28;20495;-58
2023/07/10 18:49:01;;;;;;;267.40;246.10;;;;;;;;;;4984251;28;20499;-58
2023/07/10 18:51:31;;;;;;;241.40;223.17;;;;;;;;;;4985834;28;20408;-57
2023/07/10 18:53:58;;;;;;;261.27;241.13;;;;;;;;;;4986009;28;20049;-58
2023/07/10 18:56:24;;;;;;;255.13;235.07;;;;;;;;;;4991881;28;20137;-57
2023/07/10 18:58:49;;;;;;;231.27;213.38;;;;;;;;;;4985011;28;20037;-54
2023/07/10 19:01:15;;;;;;;295.13;272.17;;;;;;;;;;4984989;28;20047;-58
2023/07/10 19:03:43;;;;;;;284.80;262.08;;;;;;;;;;4985763;28;20466;-58
2023/07/10 19:06:14;;;;;;;275.20;254.30;;;;;;;;;;4992066;28;20041;-59
2023/07/10 19:08:40;;;;;;;;;;;;;;;;;;5007287;28;20383;-55
2023/07/10 19:11:05;;;;;;;314.10;289.20;;;;;;;;;;5003162;28;20035;-54
2023/07/10 19:13:30;;;;;;;262.38;242.20;;;;;;;;;;5003835;28;20024;-55
2023/07/10 19:15:57;;;;;;;234.10;216.00;;;;;;;;;;5001572;28;20065;-55
2023/07/10 19:18:30;;;;;;;270.88;249.63;;;;;;;;;;5003048;28;20218;-54
2023/07/10 19:20:55;;;;;;;317.60;293.30;;;;;;;;;;5002916;28;20037;-56
2023/07/10 19:23:22;;;;;;;297.23;272.47;;;;;;;;;;5003444;28;20767;-57
2023/07/10 19:25:48;;;;;;;233.90;215.18;;;;;;;;;;4999000;28;20315;-56
2023/07/10 19:28:16;;;;;;;288.42;265.67;;;;;;;;;;4983260;28;20014;-59
2023/07/10 19:30:43;;;;;;;283.60;262.05;;;;;;;;;;4988997;28;20065;-57
2023/07/10 19:33:14;;;;;;;253.73;233.73;;;;;;;;;;5003887;28;20083;-58
2023/07/10 19:35:40;;;;;;;235.52;216.25;;;;;;;;;;5004070;28;20810;-57
2023/07/10 19:38:08;;;;;;;283.47;260.93;;;;;;;;;;5002664;28;20959;-58
2023/07/10 19:40:34;;;;;;;294.70;271.63;;;;;;;;;;5005643;28;20917;-54
2023/07/10 19:42:59;;;;;;;258.48;236.82;;;;;;;;;;5003119;28;20033;-56
2023/07/10 19:45:24;;;;;;;247.13;227.83;;;;;;;;;;5001071;28;20100;-59
2023/07/10 19:47:50;;;;;;;265.60;244.32;;;;;;;;;;4985446;28;20364;-57
2023/07/10 19:50:17;;;;;;;256.83;236.93;;;;;;;;;;4986242;28;20077;-56
2023/07/10 19:52:43;;;;;;;239.35;219.93;;;;;;;;;;5005210;28;20778;-56
2023/07/10 19:55:11;;;;;;;266.30;244.77;;;;;;;;;;5003192;28;20026;-57
2023/07/10 19:57:36;;;;;;;255.38;235.10;;;;;;;;;;5003369;28;20491;-57
2023/07/10 20:00:01;;;;;;;236.07;216.53;;;;;;;;;;5002982;28;20450;-56
2023/07/10 20:02:27;;;;;;;232.73;214.15;;;;;;;;;;5003924;28;20223;-56
2023/07/10 20:04:52;;;;;;;228.00;210.02;;;;;;;;;;5003958;28;20357;-56
2023/07/10 20:07:17;;;;;;;271.52;248.80;;;;;;;;;;5002097;28;20030;-57
2023/07/10 20:09:43;;;;;;;275.95;254.93;;;;;;;;;;5003454;28;20033;-56
2023/07/10 20:12:16;;;;;;;283.05;259.15;;;;;;;;;;5001197;28;20038;-57
2023/07/10 20:14:42;;;;;;;256.13;235.50;;;;;;;;;;5002646;28;20443;-58
2023/07/10 20:17:18;;;;;;;245.95;226.68;;;;;;;;;;5001119;28;20045;-56
2023/07/10 20:19:43;;;;;;;241.52;222.00;;;;;;;;;;5003265;28;20088;-58
2023/07/10 20:22:09;;;;;;;259.30;238.68;;;;;;;;;;5002842;28;20177;-58
2023/07/10 20:24:35;;;;;;;241.07;221.63;;;;;;;;;;5003813;28;20347;-55
2023/07/10 20:27:00;;;;;;;276.23;254.03;;;;;;;;;;4986612;28;20030;-55
2023/07/10 20:29:26;;;;;;;274.83;252.60;;;;;;;;;;4983835;28;20690;-57
2023/07/10 20:31:51;;;;;;;245.70;226.18;;;;;;;;;;4982623;28;20265;-54
2023/07/10 20:34:16;;;;;;;304.13;279.23;;;;;;;;;;4982430;28;20369;-56
2023/07/10 20:36:43;;;;;;;254.67;234.73;;;;;;;;;;4998366;28;20305;-55
2023/07/10 20:39:12;;;;;;;271.77;249.23;;;;;;;;;;5002745;28;21217;-56
2023/07/10 20:41:38;;;;;;;271.88;250.60;;;;;;;;;;5002778;28;20103;-57
2023/07/10 20:44:33;;;;;;;286.38;263.27;;;;;;;;;;5003305;28;20030;-57
2023/07/10 20:46:59;;;;;;;274.05;251.32;;;;;;;;;;4982099;28;20562;-57
2023/07/10 20:49:26;;;;;;;277.83;256.23;;;;;;;;;;4985700;28;20476;-59
2023/07/10 20:51:52;;;;;;;270.90;248.30;;;;;;;;;;4998139;28;20415;-57
2023/07/10 20:54:18;;;;;;;325.23;298.20;;;;;;;;;;5004174;28;20037;-57
2023/07/10 20:56:44;;;;;;;288.63;265.60;;;;;;;;;;5004152;28;20268;-55
2023/07/10 20:59:18;;;;;;;290.38;266.88;;;;;;;;;;5003127;28;20517;-56
2023/07/10 21:01:43;;;;;;;261.42;241.27;;;;;;;;;;4991167;28;20159;-58
2023/07/10 21:04:08;;;;;;;261.73;239.77;;;;;;;;;;4983949;28;20843;-56
2023/07/10 21:06:34;;;;;;;255.30;234.70;;;;;;;;;;4984682;28;20038;-56
2023/07/10 21:09:00;;;;;;;270.60;249.60;;;;;;;;;;4983651;28;20966;-57
2023/07/10 21:11:27;;;;;;;268.13;247.77;;;;;;;;;;4993259;28;20046;-58
2023/07/10 21:13:54;;;;;;;380.80;347.48;;;;;;;;;;5004047;28;20030;-57
2023/07/10 21:16:27;;;;;;;309.92;284.73;;;;;;;;;;5000014;28;20107;-56
2023/07/10 21:18:53;;;;;;;268.70;248.05;;;;;;;;;;5004389;28;20210;-56
2023/07/10 21:21:18;;;;;;;271.17;249.60;;;;;;;;;;4993036;28;20096;-58
2023/07/10 21:23:44;;;;;;;278.17;254.63;;;;;;;;;;4984049;28;20058;-58
2023/07/10 21:26:28;;;;;;;277.13;253.85;;;;;;;;;;4981572;28;20414;-56
2023/07/10 21:28:53;;;;;;;280.75;259.13;;;;;;;;;;4983243;28;20028;-55
2023/07/10 21:31:23;;;;;;;290.60;266.27;;;;;;;;;;4992936;28;20034;-56
2023/07/10 21:33:49;;;;;;;255.07;234.65;;;;;;;;;;5003146;28;20022;-57
2023/07/10 21:36:14;;;;;;;261.75;239.35;;;;;;;;;;5001388;28;20037;-59
2023/07/10 21:38:40;;;;;;;290.95;267.45;;;;;;;;;;5004398;28;20554;-56
2023/07/10 21:41:13;;;;;;;324.40;296.98;;;;;;;;;;5001098;28;20100;-54
2023/07/10 21:43:38;;;;;;;364.45;332.58;;;;;;;;;;5002228;28;20017;-57
2023/07/10 21:46:03;;;;;;;323.43;294.53;;;;;;;;;;5001039;28;20038;-58
2023/07/10 21:48:30;;;;;;;275.17;252.85;;;;;;;;;;5003016;28;20264;-58
2023/07/10 21:50:57;;;;;;;266.83;245.05;;;;;;;;;;5004680;28;20025;-57
2023/07/10 21:53:23;;;;;;;248.15;228.13;;;;;;;;;;5005470;28;20026;-56
2023/07/10 21:55:53;;;;;;;268.88;248.13;;;;;;;;;;5004949;28;20036;-58
2023/07/10 21:58:23;;;;;;;266.77;244.32;;;;;;;;;;5002627;28;20026;-57
2023/07/10 22:00:48;;;;;;;361.17;330.27;;;;;;;;;;4999860;28;20044;-57
2023/07/10 22:03:20;;;;;;;262.30;240.65;;;;;;;;;;4986414;28;20045;-56
2023/07/10 22:05:45;;;;;;;253.35;233.63;;;;;;;;;;4991038;28;20034;-57
2023/07/10 22:08:10;;;;;;;237.30;216.90;;;;;;;;;;5005560;28;20037;-58
2023/07/10 22:10:35;;;;;;;268.07;246.17;;;;;;;;;;5006770;28;20041;-55
2023/07/10 22:13:01;;;;;;;257.63;236.93;;;;;;;;;;5002935;28;20268;-55
2023/07/10 22:15:26;;;;;;;446.48;405.48;;;;;;;;;;5004294;28;20326;-55
2023/07/10 22:17:52;;;;;;;318.80;290.77;;;;;;;;;;4986761;28;20030;-55
2023/07/10 22:20:21;;;;;;;254.67;231.77;;;;;;;;;;4984823;28;20014;-56
2023/07/10 22:22:47;;;;;;;393.70;356.85;;;;;;;;;;4985740;28;20105;-58
2023/07/10 22:25:13;;;;;;;246.27;224.75;;;;;;;;;;4983982;28;20038;-57
2023/07/10 22:27:38;;;;;;;281.60;254.90;;;;;;;;;;4985483;28;20109;-56
2023/07/10 22:30:04;;;;;;;269.67;246.83;;;;;;;;;;4983416;28;20084;-57
2023/07/10 22:32:29;;;;;;;285.95;262.23;;;;;;;;;;4984136;28;20120;-57
2023/07/10 22:34:54;;;;;;;364.37;332.97;;;;;;;;;;4983865;28;20096;-56
2023/07/10 22:37:19;;;;;;;269.23;246.70;;;;;;;;;;4980277;28;20391;-58
2023/07/10 22:39:45;;;;;;;307.37;279.03;;;;;;;;;;4984833;28;20022;-58
2023/07/10 22:42:12;;;;;;;292.07;266.83;;;;;;;;;;4984589;28;20567;-58
2023/07/10 22:44:37;;;;;;;296.67;271.90;;;;;;;;;;4983096;28;20056;-58
2023/07/10 22:47:07;;;;;;;301.67;275.90;;;;;;;;;;4982646;28;20029;-58
2023/07/10 22:49:32;;;;;;;259.02;238.30;;;;;;;;;;4985147;28;20073;-56
2023/07/10 22:51:57;;;;;;;263.63;241.97;;;;;;;;;;4984548;28;20117;-58
2023/07/10 22:54:23;;;;;;;260.10;239.20;;;;;;;;;;4982246;28;20957;-56
2023/07/10 22:56:48;;;;;;;252.53;230.97;;;;;;;;;;4982105;28;20429;-58
2023/07/10 22:59:15;;;;;;;315.03;288.43;;;;;;;;;;4981926;28;20660;-57
2023/07/10 23:01:42;;;;;;;265.13;242.82;;;;;;;;;;4982560;28;20042;-59
2023/07/10 23:04:08;;;;;;;280.38;257.77;;;;;;;;;;4983356;28;20024;-55
2023/07/10 23:06:34;;;;;;;270.48;246.13;;;;;;;;;;4981786;28;20579;-56
2023/07/10 23:08:59;;;;;;;296.38;271.58;;;;;;;;;;4983443;28;20405;-55
2023/07/10 23:11:24;;;;;;;255.80;235.07;;;;;;;;;;4981983;28;20046;-57
2023/07/10 23:13:50;;;;;;;256.83;235.98;;;;;;;;;;4985295;28;20066;-58
2023/07/10 23:16:16;;;;;;;273.00;249.65;;;;;;;;;;4980433;28;20044;-56
2023/07/10 23:18:48;;;;;;;271.13;247.13;;;;;;;;;;4983397;28;20038;-58
2023/07/10 23:21:14;;;;;;;265.83;244.15;;;;;;;;;;4983154;28;20519;-59
2023/07/10 23:23:39;;;;;;;263.47;241.90;;;;;;;;;;4983295;28;20030;-56
2023/07/10 23:26:04;;;;;;;265.10;242.97;;;;;;;;;;4982343;28;20179;-59
2023/07/10 23:28:29;;;;;;;289.60;263.20;;;;;;;;;;4983098;28;20308;-57
2023/07/10 23:30:55;;;;;;;253.67;232.77;;;;;;;;;;4983553;28;20281;-55
2023/07/10 23:33:20;;;;;;;268.87;245.90;;;;;;;;;;4983020;28;20543;-58
2023/07/10 23:35:45;;;;;;;273.83;250.30;;;;;;;;;;4983517;28;20553;-57
2023/07/10 23:38:11;;;;;;;308.23;280.40;;;;;;;;;;4982171;28;20112;-57
2023/07/10 23:40:36;;;;;;;253.93;233.40;;;;;;;;;;4982210;28;20115;-57
2023/07/10 23:43:02;;;;;;;258.45;237.75;;;;;;;;;;4981832;28;20336;-57
2023/07/10 23:45:27;;;;;;;266.25;243.25;;;;;;;;;;4984049;28;20457;-56
2023/07/10 23:47:52;;;;;;;265.60;243.05;;;;;;;;;;4983544;28;20451;-57
2023/07/10 23:50:18;;;;;;;281.63;258.35;;;;;;;;;;4981438;28;20057;-57
2023/07/10 23:52:45;;;;;;;270.73;247.75;;;;;;;;;;4982323;28;20026;-55
2023/07/10 23:55:11;;;;;;;259.67;236.98;;;;;;;;;;4983394;28;20128;-57
2023/07/10 23:57:37;;;;;;;261.70;240.00;;;;;;;;;;4985364;28;20040;-55
